sensor_id;sensor_type;location;lat;lon;timestamp;P1;durP1;ratioP1;P2;durP2;ratioP2
53801;SDS011;39709;53.334;6.534;2022-12-20T00:01:08;3.33;;;0.85;;
53801;SDS011;39709;53.334;6.534;2022-12-20T00:03:36;3.10;;;0.73;;
53801;SDS011;39709;53.334;6.534;2022-12-20T00:06:02;4.25;;;0.85;;
53801;SDS011;39709;53.334;6.534;2022-12-20T00:08:28;3.08;;;0.70;;
53801;SDS011;39709;53.334;6.534;2022-12-20T00:10:53;3.20;;;0.70;;
53801;SDS011;39709;53.334;6.534;2022-12-20T00:13:19;4.33;;;0.70;;
53801;SDS011;39709;53.334;6.534;2022-12-20T00:15:45;2.80;;;0.60;;
53801;SDS011;39709;53.334;6.534;2022-12-20T00:18:10;1.58;;;0.50;;
53801;SDS011;39709;53.334;6.534;2022-12-20T00:20:36;3.20;;;0.80;;
53801;SDS011;39709;53.334;6.534;2022-12-20T00:23:01;5.57;;;1.55;;
53801;SDS011;39709;53.334;6.534;2022-12-20T00:25:27;2.90;;;0.80;;
53801;SDS011;39709;53.334;6.534;2022-12-20T00:28:00;3.47;;;0.65;;
53801;SDS011;39709;53.334;6.534;2022-12-20T00:30:27;3.30;;;1.00;;
53801;SDS011;39709;53.334;6.534;2022-12-20T00:32:52;4.93;;;1.15;;
53801;SDS011;39709;53.334;6.534;2022-12-20T00:35:18;5.33;;;1.10;;
53801;SDS011;39709;53.334;6.534;2022-12-20T00:37:44;3.95;;;0.80;;
53801;SDS011;39709;53.334;6.534;2022-12-20T00:40:09;3.13;;;0.87;;
53801;SDS011;39709;53.334;6.534;2022-12-20T00:42:35;5.28;;;1.35;;
53801;SDS011;39709;53.334;6.534;2022-12-20T00:45:01;3.73;;;0.80;;
53801;SDS011;39709;53.334;6.534;2022-12-20T00:47:27;6.72;;;1.33;;
53801;SDS011;39709;53.334;6.534;2022-12-20T00:49:53;3.43;;;0.93;;
53801;SDS011;39709;53.334;6.534;2022-12-20T00:52:19;1.90;;;0.52;;
53801;SDS011;39709;53.334;6.534;2022-12-20T00:54:44;3.37;;;0.70;;
53801;SDS011;39709;53.334;6.534;2022-12-20T00:57:10;4.00;;;0.97;;
53801;SDS011;39709;53.334;6.534;2022-12-20T00:59:36;3.28;;;0.90;;
53801;SDS011;39709;53.334;6.534;2022-12-20T01:02:01;3.00;;;0.80;;
53801;SDS011;39709;53.334;6.534;2022-12-20T01:04:27;2.88;;;0.65;;
53801;SDS011;39709;53.334;6.534;2022-12-20T01:06:52;5.13;;;1.27;;
53801;SDS011;39709;53.334;6.534;2022-12-20T01:09:18;4.07;;;1.07;;
53801;SDS011;39709;53.334;6.534;2022-12-20T01:11:44;1.85;;;0.35;;
53801;SDS011;39709;53.334;6.534;2022-12-20T01:14:11;4.93;;;1.23;;
53801;SDS011;39709;53.334;6.534;2022-12-20T01:16:42;3.42;;;0.85;;
53801;SDS011;39709;53.334;6.534;2022-12-20T01:19:10;3.58;;;0.85;;
53801;SDS011;39709;53.334;6.534;2022-12-20T01:21:37;4.93;;;1.00;;
53801;SDS011;39709;53.334;6.534;2022-12-20T01:24:15;3.88;;;1.00;;
53801;SDS011;39709;53.334;6.534;2022-12-20T01:26:42;3.40;;;0.60;;
53801;SDS011;39709;53.334;6.534;2022-12-20T01:29:08;2.63;;;0.55;;
53801;SDS011;39709;53.334;6.534;2022-12-20T01:31:34;4.43;;;0.90;;
53801;SDS011;39709;53.334;6.534;2022-12-20T01:34:00;3.40;;;0.80;;
53801;SDS011;39709;53.334;6.534;2022-12-20T01:36:27;3.43;;;0.90;;
53801;SDS011;39709;53.334;6.534;2022-12-20T01:38:55;3.75;;;0.80;;
53801;SDS011;39709;53.334;6.534;2022-12-20T01:41:22;2.95;;;0.60;;
53801;SDS011;39709;53.334;6.534;2022-12-20T01:44:02;2.72;;;0.75;;
53801;SDS011;39709;53.334;6.534;2022-12-20T01:46:31;4.05;;;1.23;;
53801;SDS011;39709;53.334;6.534;2022-12-20T01:51:33;2.05;;;0.40;;
53801;SDS011;39709;53.334;6.534;2022-12-20T01:54:22;2.90;;;0.50;;
53801;SDS011;39709;53.334;6.534;2022-12-20T01:56:51;3.80;;;0.95;;
53801;SDS011;39709;53.334;6.534;2022-12-20T01:59:24;3.33;;;0.68;;
53801;SDS011;39709;53.334;6.534;2022-12-20T02:01:51;3.00;;;0.80;;
53801;SDS011;39709;53.334;6.534;2022-12-20T02:04:16;4.85;;;1.65;;
53801;SDS011;39709;53.334;6.534;2022-12-20T02:06:42;2.60;;;0.83;;
53801;SDS011;39709;53.334;6.534;2022-12-20T02:09:08;4.00;;;1.20;;
53801;SDS011;39709;53.334;6.534;2022-12-20T02:11:45;4.75;;;0.85;;
53801;SDS011;39709;53.334;6.534;2022-12-20T02:17:19;2.50;;;0.63;;
53801;SDS011;39709;53.334;6.534;2022-12-20T02:20:29;3.38;;;0.80;;
53801;SDS011;39709;53.334;6.534;2022-12-20T02:30:59;2.90;;;0.68;;
53801;SDS011;39709;53.334;6.534;2022-12-20T02:33:29;3.13;;;0.65;;
53801;SDS011;39709;53.334;6.534;2022-12-20T02:35:55;3.30;;;0.70;;
53801;SDS011;39709;53.334;6.534;2022-12-20T02:41:02;5.43;;;0.98;;
53801;SDS011;39709;53.334;6.534;2022-12-20T02:43:35;2.85;;;0.73;;
53801;SDS011;39709;53.334;6.534;2022-12-20T02:46:21;4.17;;;0.70;;
53801;SDS011;39709;53.334;6.534;2022-12-20T02:48:48;5.10;;;1.08;;
53801;SDS011;39709;53.334;6.534;2022-12-20T02:51:16;1.90;;;0.50;;
53801;SDS011;39709;53.334;6.534;2022-12-20T02:53:45;3.80;;;1.05;;
53801;SDS011;39709;53.334;6.534;2022-12-20T02:58:50;4.13;;;1.10;;
53801;SDS011;39709;53.334;6.534;2022-12-20T03:01:22;3.47;;;0.63;;
53801;SDS011;39709;53.334;6.534;2022-12-20T03:03:55;1.30;;;0.30;;
53801;SDS011;39709;53.334;6.534;2022-12-20T03:06:22;3.35;;;0.75;;
53801;SDS011;39709;53.334;6.534;2022-12-20T03:08:48;3.88;;;0.90;;
53801;SDS011;39709;53.334;6.534;2022-12-20T03:11:14;1.90;;;0.50;;
53801;SDS011;39709;53.334;6.534;2022-12-20T03:13:39;2.90;;;0.83;;
53801;SDS011;39709;53.334;6.534;2022-12-20T03:16:05;3.00;;;0.70;;
53801;SDS011;39709;53.334;6.534;2022-12-20T03:18:31;4.40;;;0.88;;
53801;SDS011;39709;53.334;6.534;2022-12-20T03:20:57;3.23;;;0.70;;
53801;SDS011;39709;53.334;6.534;2022-12-20T03:23:23;3.20;;;0.57;;
53801;SDS011;39709;53.334;6.534;2022-12-20T03:25:48;3.07;;;0.80;;
53801;SDS011;39709;53.334;6.534;2022-12-20T03:28:14;4.70;;;1.00;;
53801;SDS011;39709;53.334;6.534;2022-12-20T03:30:40;1.97;;;0.50;;
53801;SDS011;39709;53.334;6.534;2022-12-20T03:33:06;2.10;;;0.40;;
53801;SDS011;39709;53.334;6.534;2022-12-20T03:35:32;3.70;;;0.63;;
53801;SDS011;39709;53.334;6.534;2022-12-20T03:37:58;3.75;;;0.70;;
53801;SDS011;39709;53.334;6.534;2022-12-20T03:40:24;3.58;;;0.88;;
53801;SDS011;39709;53.334;6.534;2022-12-20T03:42:49;2.70;;;0.70;;
53801;SDS011;39709;53.334;6.534;2022-12-20T03:45:15;2.47;;;0.67;;
53801;SDS011;39709;53.334;6.534;2022-12-20T03:47:41;7.85;;;1.60;;
53801;SDS011;39709;53.334;6.534;2022-12-20T03:50:07;4.20;;;1.10;;
53801;SDS011;39709;53.334;6.534;2022-12-20T03:52:33;2.63;;;0.70;;
53801;SDS011;39709;53.334;6.534;2022-12-20T03:54:59;2.88;;;0.70;;
53801;SDS011;39709;53.334;6.534;2022-12-20T03:57:25;3.70;;;1.10;;
53801;SDS011;39709;53.334;6.534;2022-12-20T03:59:50;2.53;;;0.50;;
53801;SDS011;39709;53.334;6.534;2022-12-20T04:02:18;2.33;;;0.45;;
53801;SDS011;39709;53.334;6.534;2022-12-20T04:04:45;2.53;;;0.70;;
53801;SDS011;39709;53.334;6.534;2022-12-20T04:07:11;2.20;;;0.40;;
53801;SDS011;39709;53.334;6.534;2022-12-20T04:09:36;2.23;;;0.40;;
53801;SDS011;39709;53.334;6.534;2022-12-20T04:12:02;2.83;;;0.80;;
53801;SDS011;39709;53.334;6.534;2022-12-20T04:14:28;3.17;;;0.80;;
53801;SDS011;39709;53.334;6.534;2022-12-20T04:16:54;3.15;;;0.88;;
53801;SDS011;39709;53.334;6.534;2022-12-20T04:19:19;3.23;;;0.60;;
53801;SDS011;39709;53.334;6.534;2022-12-20T04:21:45;3.53;;;0.60;;
53801;SDS011;39709;53.334;6.534;2022-12-20T04:24:11;6.55;;;0.80;;
53801;SDS011;39709;53.334;6.534;2022-12-20T04:26:36;4.17;;;0.83;;
53801;SDS011;39709;53.334;6.534;2022-12-20T04:29:02;5.05;;;0.88;;
53801;SDS011;39709;53.334;6.534;2022-12-20T04:31:28;4.90;;;1.42;;
53801;SDS011;39709;53.334;6.534;2022-12-20T04:33:54;3.57;;;0.60;;
53801;SDS011;39709;53.334;6.534;2022-12-20T04:36:20;3.03;;;0.70;;
53801;SDS011;39709;53.334;6.534;2022-12-20T04:38:46;3.50;;;0.53;;
53801;SDS011;39709;53.334;6.534;2022-12-20T04:41:11;3.25;;;0.73;;
53801;SDS011;39709;53.334;6.534;2022-12-20T04:43:47;4.75;;;0.63;;
53801;SDS011;39709;53.334;6.534;2022-12-20T04:46:17;3.73;;;0.73;;
53801;SDS011;39709;53.334;6.534;2022-12-20T04:48:43;1.90;;;0.50;;
53801;SDS011;39709;53.334;6.534;2022-12-20T04:51:09;4.47;;;0.82;;
53801;SDS011;39709;53.334;6.534;2022-12-20T04:53:35;2.13;;;0.70;;
53801;SDS011;39709;53.334;6.534;2022-12-20T04:56:20;2.83;;;0.67;;
53801;SDS011;39709;53.334;6.534;2022-12-20T04:58:53;4.10;;;0.70;;
53801;SDS011;39709;53.334;6.534;2022-12-20T05:01:19;4.40;;;0.88;;
53801;SDS011;39709;53.334;6.534;2022-12-20T05:03:46;2.63;;;0.43;;
53801;SDS011;39709;53.334;6.534;2022-12-20T05:06:12;6.05;;;1.70;;
53801;SDS011;39709;53.334;6.534;2022-12-20T05:08:38;2.53;;;0.40;;
53801;SDS011;39709;53.334;6.534;2022-12-20T05:11:04;3.15;;;0.70;;
53801;SDS011;39709;53.334;6.534;2022-12-20T05:13:31;4.03;;;0.68;;
53801;SDS011;39709;53.334;6.534;2022-12-20T05:15:57;4.67;;;0.50;;
53801;SDS011;39709;53.334;6.534;2022-12-20T05:18:24;3.63;;;1.00;;
53801;SDS011;39709;53.334;6.534;2022-12-20T05:20:53;3.33;;;0.60;;
53801;SDS011;39709;53.334;6.534;2022-12-20T05:23:39;6.22;;;0.88;;
53801;SDS011;39709;53.334;6.534;2022-12-20T05:26:23;3.60;;;0.95;;
53801;SDS011;39709;53.334;6.534;2022-12-20T05:28:50;1.70;;;0.40;;
53801;SDS011;39709;53.334;6.534;2022-12-20T05:31:16;3.28;;;0.75;;
53801;SDS011;39709;53.334;6.534;2022-12-20T05:33:41;2.83;;;0.60;;
53801;SDS011;39709;53.334;6.534;2022-12-20T05:36:07;4.43;;;1.00;;
53801;SDS011;39709;53.334;6.534;2022-12-20T05:38:33;3.55;;;0.73;;
53801;SDS011;39709;53.334;6.534;2022-12-20T05:40:59;3.13;;;0.97;;
53801;SDS011;39709;53.334;6.534;2022-12-20T05:43:24;3.22;;;0.57;;
53801;SDS011;39709;53.334;6.534;2022-12-20T05:45:51;3.93;;;1.00;;
53801;SDS011;39709;53.334;6.534;2022-12-20T05:48:18;2.45;;;0.47;;
53801;SDS011;39709;53.334;6.534;2022-12-20T05:50:44;3.17;;;0.77;;
53801;SDS011;39709;53.334;6.534;2022-12-20T05:53:11;4.78;;;0.82;;
53801;SDS011;39709;53.334;6.534;2022-12-20T05:55:44;3.87;;;0.90;;
53801;SDS011;39709;53.334;6.534;2022-12-20T05:58:12;3.80;;;1.00;;
53801;SDS011;39709;53.334;6.534;2022-12-20T06:00:42;3.78;;;0.60;;
53801;SDS011;39709;53.334;6.534;2022-12-20T06:03:09;2.10;;;0.40;;
53801;SDS011;39709;53.334;6.534;2022-12-20T06:05:36;2.28;;;0.52;;
53801;SDS011;39709;53.334;6.534;2022-12-20T06:08:03;3.23;;;0.83;;
53801;SDS011;39709;53.334;6.534;2022-12-20T06:10:30;2.13;;;0.50;;
53801;SDS011;39709;53.334;6.534;2022-12-20T06:12:56;2.97;;;0.60;;
53801;SDS011;39709;53.334;6.534;2022-12-20T06:15:22;2.80;;;0.57;;
53801;SDS011;39709;53.334;6.534;2022-12-20T06:17:48;2.95;;;0.93;;
53801;SDS011;39709;53.334;6.534;2022-12-20T06:20:13;3.97;;;0.93;;
53801;SDS011;39709;53.334;6.534;2022-12-20T06:22:39;2.50;;;0.63;;
53801;SDS011;39709;53.334;6.534;2022-12-20T06:25:05;3.50;;;0.93;;
53801;SDS011;39709;53.334;6.534;2022-12-20T06:27:33;2.45;;;0.73;;
53801;SDS011;39709;53.334;6.534;2022-12-20T06:30:00;1.67;;;0.50;;
53801;SDS011;39709;53.334;6.534;2022-12-20T06:32:26;2.97;;;0.60;;
53801;SDS011;39709;53.334;6.534;2022-12-20T06:34:51;2.53;;;0.70;;
53801;SDS011;39709;53.334;6.534;2022-12-20T06:37:17;3.90;;;0.98;;
53801;SDS011;39709;53.334;6.534;2022-12-20T06:39:42;2.53;;;0.50;;
53801;SDS011;39709;53.334;6.534;2022-12-20T06:42:08;1.80;;;0.53;;
53801;SDS011;39709;53.334;6.534;2022-12-20T06:44:34;3.55;;;0.50;;
53801;SDS011;39709;53.334;6.534;2022-12-20T06:47:00;3.07;;;0.70;;
53801;SDS011;39709;53.334;6.534;2022-12-20T06:49:25;4.00;;;1.00;;
53801;SDS011;39709;53.334;6.534;2022-12-20T06:51:51;3.72;;;1.00;;
53801;SDS011;39709;53.334;6.534;2022-12-20T06:54:17;3.30;;;0.60;;
53801;SDS011;39709;53.334;6.534;2022-12-20T06:56:42;1.73;;;0.47;;
53801;SDS011;39709;53.334;6.534;2022-12-20T06:59:08;2.63;;;0.70;;
53801;SDS011;39709;53.334;6.534;2022-12-20T07:01:34;3.13;;;0.57;;
53801;SDS011;39709;53.334;6.534;2022-12-20T07:04:00;5.77;;;2.17;;
53801;SDS011;39709;53.334;6.534;2022-12-20T07:06:25;3.40;;;0.93;;
53801;SDS011;39709;53.334;6.534;2022-12-20T07:08:53;2.40;;;0.60;;
53801;SDS011;39709;53.334;6.534;2022-12-20T07:11:19;4.20;;;1.27;;
53801;SDS011;39709;53.334;6.534;2022-12-20T07:13:44;4.07;;;1.30;;
53801;SDS011;39709;53.334;6.534;2022-12-20T07:16:10;3.80;;;0.95;;
53801;SDS011;39709;53.334;6.534;2022-12-20T07:18:36;4.33;;;0.90;;
53801;SDS011;39709;53.334;6.534;2022-12-20T07:21:02;2.75;;;0.70;;
53801;SDS011;39709;53.334;6.534;2022-12-20T07:23:29;2.28;;;0.50;;
53801;SDS011;39709;53.334;6.534;2022-12-20T07:25:56;3.93;;;0.47;;
53801;SDS011;39709;53.334;6.534;2022-12-20T07:28:24;2.00;;;0.50;;
53801;SDS011;39709;53.334;6.534;2022-12-20T07:30:51;3.13;;;0.60;;
53801;SDS011;39709;53.334;6.534;2022-12-20T07:33:18;2.70;;;0.60;;
53801;SDS011;39709;53.334;6.534;2022-12-20T07:35:44;2.17;;;0.50;;
53801;SDS011;39709;53.334;6.534;2022-12-20T07:38:13;2.37;;;0.50;;
53801;SDS011;39709;53.334;6.534;2022-12-20T07:40:40;2.90;;;0.65;;
53801;SDS011;39709;53.334;6.534;2022-12-20T07:43:06;3.25;;;0.80;;
53801;SDS011;39709;53.334;6.534;2022-12-20T07:45:33;4.30;;;1.50;;
53801;SDS011;39709;53.334;6.534;2022-12-20T07:47:58;3.97;;;0.90;;
53801;SDS011;39709;53.334;6.534;2022-12-20T07:50:25;2.17;;;0.70;;
53801;SDS011;39709;53.334;6.534;2022-12-20T07:52:52;1.95;;;0.52;;
53801;SDS011;39709;53.334;6.534;2022-12-20T07:55:18;2.23;;;0.63;;
53801;SDS011;39709;53.334;6.534;2022-12-20T07:57:46;3.25;;;0.68;;
53801;SDS011;39709;53.334;6.534;2022-12-20T08:00:18;3.13;;;1.20;;
53801;SDS011;39709;53.334;6.534;2022-12-20T08:02:52;5.85;;;1.33;;
53801;SDS011;39709;53.334;6.534;2022-12-20T08:05:21;4.83;;;0.93;;
53801;SDS011;39709;53.334;6.534;2022-12-20T08:07:48;3.42;;;0.70;;
53801;SDS011;39709;53.334;6.534;2022-12-20T08:10:14;4.15;;;1.40;;
53801;SDS011;39709;53.334;6.534;2022-12-20T08:12:44;3.65;;;0.80;;
53801;SDS011;39709;53.334;6.534;2022-12-20T08:15:12;2.72;;;0.77;;
53801;SDS011;39709;53.334;6.534;2022-12-20T08:17:38;3.53;;;1.17;;
53801;SDS011;39709;53.334;6.534;2022-12-20T08:20:04;2.70;;;0.65;;
53801;SDS011;39709;53.334;6.534;2022-12-20T08:22:31;4.72;;;1.25;;
53801;SDS011;39709;53.334;6.534;2022-12-20T08:24:56;1.73;;;0.40;;
53801;SDS011;39709;53.334;6.534;2022-12-20T08:27:22;1.83;;;0.30;;
53801;SDS011;39709;53.334;6.534;2022-12-20T08:29:48;5.28;;;2.25;;
53801;SDS011;39709;53.334;6.534;2022-12-20T08:32:14;3.67;;;0.77;;
53801;SDS011;39709;53.334;6.534;2022-12-20T08:34:40;6.78;;;3.28;;
53801;SDS011;39709;53.334;6.534;2022-12-20T08:37:06;8.45;;;2.97;;
53801;SDS011;39709;53.334;6.534;2022-12-20T08:39:32;2.70;;;0.73;;
53801;SDS011;39709;53.334;6.534;2022-12-20T08:41:57;2.35;;;0.60;;
53801;SDS011;39709;53.334;6.534;2022-12-20T08:44:23;3.40;;;0.70;;
53801;SDS011;39709;53.334;6.534;2022-12-20T08:46:49;3.67;;;0.73;;
53801;SDS011;39709;53.334;6.534;2022-12-20T08:49:15;3.60;;;0.80;;
53801;SDS011;39709;53.334;6.534;2022-12-20T08:51:41;7.28;;;1.67;;
53801;SDS011;39709;53.334;6.534;2022-12-20T08:54:06;3.33;;;0.93;;
53801;SDS011;39709;53.334;6.534;2022-12-20T08:56:32;4.38;;;1.63;;
53801;SDS011;39709;53.334;6.534;2022-12-20T08:58:58;4.03;;;1.07;;
53801;SDS011;39709;53.334;6.534;2022-12-20T09:01:23;2.63;;;0.57;;
53801;SDS011;39709;53.334;6.534;2022-12-20T09:03:51;2.90;;;0.50;;
53801;SDS011;39709;53.334;6.534;2022-12-20T09:06:18;3.42;;;0.82;;
53801;SDS011;39709;53.334;6.534;2022-12-20T09:08:44;5.03;;;0.80;;
53801;SDS011;39709;53.334;6.534;2022-12-20T09:11:15;3.63;;;0.70;;
53801;SDS011;39709;53.334;6.534;2022-12-20T09:13:44;3.37;;;1.03;;
53801;SDS011;39709;53.334;6.534;2022-12-20T09:16:12;4.55;;;1.27;;
53801;SDS011;39709;53.334;6.534;2022-12-20T09:18:40;3.92;;;1.08;;
53801;SDS011;39709;53.334;6.534;2022-12-20T09:21:06;3.88;;;0.95;;
53801;SDS011;39709;53.334;6.534;2022-12-20T09:23:33;2.35;;;0.60;;
53801;SDS011;39709;53.334;6.534;2022-12-20T09:26:00;2.73;;;0.67;;
53801;SDS011;39709;53.334;6.534;2022-12-20T09:28:30;3.83;;;0.80;;
53801;SDS011;39709;53.334;6.534;2022-12-20T09:30:57;2.67;;;1.00;;
53801;SDS011;39709;53.334;6.534;2022-12-20T09:33:24;3.28;;;1.05;;
53801;SDS011;39709;53.334;6.534;2022-12-20T09:35:50;1.70;;;0.50;;
53801;SDS011;39709;53.334;6.534;2022-12-20T09:38:15;5.72;;;1.73;;
53801;SDS011;39709;53.334;6.534;2022-12-20T09:40:45;9.53;;;4.53;;
53801;SDS011;39709;53.334;6.534;2022-12-20T09:43:13;3.22;;;0.75;;
53801;SDS011;39709;53.334;6.534;2022-12-20T09:45:40;4.55;;;1.10;;
53801;SDS011;39709;53.334;6.534;2022-12-20T09:48:08;3.17;;;0.80;;
53801;SDS011;39709;53.334;6.534;2022-12-20T09:51:01;2.43;;;0.67;;
53801;SDS011;39709;53.334;6.534;2022-12-20T09:56:09;3.78;;;0.82;;
53801;SDS011;39709;53.334;6.534;2022-12-20T10:01:16;3.75;;;0.90;;
53801;SDS011;39709;53.334;6.534;2022-12-20T10:03:44;3.10;;;0.70;;
53801;SDS011;39709;53.334;6.534;2022-12-20T10:08:58;4.55;;;0.90;;
53801;SDS011;39709;53.334;6.534;2022-12-20T10:17:02;4.47;;;1.25;;
53801;SDS011;39709;53.334;6.534;2022-12-20T10:22:22;4.13;;;0.75;;
53801;SDS011;39709;53.334;6.534;2022-12-20T10:27:47;3.53;;;0.90;;
53801;SDS011;39709;53.334;6.534;2022-12-20T10:30:16;3.50;;;0.93;;
53801;SDS011;39709;53.334;6.534;2022-12-20T10:32:43;3.03;;;0.70;;
53801;SDS011;39709;53.334;6.534;2022-12-20T10:38:01;4.63;;;1.42;;
53801;SDS011;39709;53.334;6.534;2022-12-20T10:40:33;9.07;;;0.60;;
53801;SDS011;39709;53.334;6.534;2022-12-20T10:43:01;3.72;;;1.00;;
53801;SDS011;39709;53.334;6.534;2022-12-20T10:45:35;3.75;;;0.80;;
53801;SDS011;39709;53.334;6.534;2022-12-20T10:48:05;3.55;;;0.88;;
53801;SDS011;39709;53.334;6.534;2022-12-20T10:53:34;5.37;;;1.40;;
53801;SDS011;39709;53.334;6.534;2022-12-20T11:01:23;40.20;;;17.48;;
53801;SDS011;39709;53.334;6.534;2022-12-20T11:06:24;5.27;;;1.13;;
53801;SDS011;39709;53.334;6.534;2022-12-20T11:12:05;6.75;;;1.85;;
53801;SDS011;39709;53.334;6.534;2022-12-20T11:14:36;4.78;;;1.52;;
53801;SDS011;39709;53.334;6.534;2022-12-20T11:17:14;8.82;;;4.88;;
53801;SDS011;39709;53.334;6.534;2022-12-20T11:22:36;2.63;;;0.50;;
53801;SDS011;39709;53.334;6.534;2022-12-20T11:28:39;4.70;;;1.30;;
53801;SDS011;39709;53.334;6.534;2022-12-20T11:33:51;3.53;;;0.87;;
53801;SDS011;39709;53.334;6.534;2022-12-20T11:44:45;3.95;;;0.85;;
53801;SDS011;39709;53.334;6.534;2022-12-20T11:52:37;4.45;;;1.10;;
53801;SDS011;39709;53.334;6.534;2022-12-20T11:55:26;3.35;;;1.00;;
53801;SDS011;39709;53.334;6.534;2022-12-20T11:57:59;2.40;;;0.50;;
53801;SDS011;39709;53.334;6.534;2022-12-20T12:00:35;4.60;;;1.37;;
53801;SDS011;39709;53.334;6.534;2022-12-20T12:05:46;3.47;;;1.08;;
53801;SDS011;39709;53.334;6.534;2022-12-20T12:08:17;5.18;;;1.30;;
53801;SDS011;39709;53.334;6.534;2022-12-20T12:13:51;4.60;;;1.30;;
53801;SDS011;39709;53.334;6.534;2022-12-20T12:16:28;3.30;;;0.73;;
53801;SDS011;39709;53.334;6.534;2022-12-20T12:18:59;2.85;;;0.88;;
53801;SDS011;39709;53.334;6.534;2022-12-20T12:21:33;4.22;;;1.10;;
53801;SDS011;39709;53.334;6.534;2022-12-20T12:26:45;2.53;;;0.70;;
53801;SDS011;39709;53.334;6.534;2022-12-20T12:29:12;5.97;;;1.70;;
53801;SDS011;39709;53.334;6.534;2022-12-20T12:34:40;4.88;;;1.00;;
53801;SDS011;39709;53.334;6.534;2022-12-20T12:45:43;3.20;;;0.80;;
53801;SDS011;39709;53.334;6.534;2022-12-20T12:50:56;5.50;;;2.00;;
53801;SDS011;39709;53.334;6.534;2022-12-20T12:53:42;2.75;;;0.77;;
53801;SDS011;39709;53.334;6.534;2022-12-20T13:01:47;3.08;;;0.88;;
53801;SDS011;39709;53.334;6.534;2022-12-20T13:09:45;4.53;;;1.55;;
53801;SDS011;39709;53.334;6.534;2022-12-20T13:17:54;3.13;;;0.75;;
53801;SDS011;39709;53.334;6.534;2022-12-20T13:25:43;5.27;;;1.50;;
53801;SDS011;39709;53.334;6.534;2022-12-20T13:30:45;3.05;;;0.63;;
53801;SDS011;39709;53.334;6.534;2022-12-20T13:33:22;4.57;;;1.55;;
53801;SDS011;39709;53.334;6.534;2022-12-20T13:36:04;4.18;;;1.23;;
53801;SDS011;39709;53.334;6.534;2022-12-20T13:38:57;6.17;;;1.97;;
53801;SDS011;39709;53.334;6.534;2022-12-20T13:41:45;5.07;;;2.13;;
53801;SDS011;39709;53.334;6.534;2022-12-20T13:44:18;4.93;;;1.70;;
53801;SDS011;39709;53.334;6.534;2022-12-20T13:49:45;4.00;;;1.17;;
53801;SDS011;39709;53.334;6.534;2022-12-20T13:55:32;8.25;;;3.40;;
53801;SDS011;39709;53.334;6.534;2022-12-20T13:58:04;6.47;;;2.92;;
53801;SDS011;39709;53.334;6.534;2022-12-20T14:00:35;7.00;;;2.78;;
53801;SDS011;39709;53.334;6.534;2022-12-20T14:03:02;11.07;;;6.65;;
53801;SDS011;39709;53.334;6.534;2022-12-20T14:05:33;8.90;;;4.73;;
53801;SDS011;39709;53.334;6.534;2022-12-20T14:08:03;7.15;;;3.72;;
53801;SDS011;39709;53.334;6.534;2022-12-20T14:10:34;3.38;;;1.23;;
53801;SDS011;39709;53.334;6.534;2022-12-20T14:13:00;6.03;;;2.50;;
53801;SDS011;39709;53.334;6.534;2022-12-20T14:15:31;8.65;;;4.78;;
53801;SDS011;39709;53.334;6.534;2022-12-20T14:18:05;3.33;;;0.87;;
53801;SDS011;39709;53.334;6.534;2022-12-20T14:20:45;7.55;;;3.22;;
53801;SDS011;39709;53.334;6.534;2022-12-20T14:23:33;4.88;;;2.05;;
53801;SDS011;39709;53.334;6.534;2022-12-20T14:26:02;5.38;;;2.40;;
53801;SDS011;39709;53.334;6.534;2022-12-20T14:28:34;2.20;;;0.55;;
53801;SDS011;39709;53.334;6.534;2022-12-20T14:31:03;8.03;;;3.63;;
53801;SDS011;39709;53.334;6.534;2022-12-20T14:35:55;12.90;;;6.78;;
53801;SDS011;39709;53.334;6.534;2022-12-20T14:38:28;12.97;;;6.97;;
53801;SDS011;39709;53.334;6.534;2022-12-20T14:40:57;9.40;;;4.68;;
53801;SDS011;39709;53.334;6.534;2022-12-20T14:43:27;9.93;;;5.32;;
53801;SDS011;39709;53.334;6.534;2022-12-20T14:48:43;7.80;;;3.50;;
53801;SDS011;39709;53.334;6.534;2022-12-20T14:51:09;10.65;;;5.38;;
53801;SDS011;39709;53.334;6.534;2022-12-20T14:53:36;8.43;;;4.85;;
53801;SDS011;39709;53.334;6.534;2022-12-20T14:56:03;12.32;;;6.05;;
53801;SDS011;39709;53.334;6.534;2022-12-20T14:58:30;12.97;;;4.93;;
53801;SDS011;39709;53.334;6.534;2022-12-20T15:00:59;11.63;;;6.47;;
53801;SDS011;39709;53.334;6.534;2022-12-20T15:03:27;15.13;;;7.32;;
53801;SDS011;39709;53.334;6.534;2022-12-20T15:05:56;15.60;;;9.43;;
53801;SDS011;39709;53.334;6.534;2022-12-20T15:16:02;15.13;;;8.18;;
53801;SDS011;39709;53.334;6.534;2022-12-20T15:18:31;13.40;;;6.75;;
53801;SDS011;39709;53.334;6.534;2022-12-20T15:21:00;13.35;;;7.13;;
53801;SDS011;39709;53.334;6.534;2022-12-20T15:23:29;12.07;;;7.37;;
53801;SDS011;39709;53.334;6.534;2022-12-20T15:25:55;5.95;;;2.15;;
53801;SDS011;39709;53.334;6.534;2022-12-20T15:28:22;13.02;;;5.57;;
53801;SDS011;39709;53.334;6.534;2022-12-20T15:30:49;18.80;;;9.60;;
53801;SDS011;39709;53.334;6.534;2022-12-20T15:33:16;16.60;;;9.32;;
53801;SDS011;39709;53.334;6.534;2022-12-20T15:35:54;18.60;;;9.98;;
53801;SDS011;39709;53.334;6.534;2022-12-20T15:38:22;18.42;;;9.32;;
53801;SDS011;39709;53.334;6.534;2022-12-20T15:40:50;19.87;;;10.70;;
53801;SDS011;39709;53.334;6.534;2022-12-20T15:43:18;19.08;;;10.95;;
53801;SDS011;39709;53.334;6.534;2022-12-20T15:45:47;24.55;;;11.55;;
53801;SDS011;39709;53.334;6.534;2022-12-20T15:48:18;18.08;;;11.68;;
53801;SDS011;39709;53.334;6.534;2022-12-20T15:50:54;19.35;;;12.10;;
53801;SDS011;39709;53.334;6.534;2022-12-20T15:53:23;15.90;;;7.43;;
53801;SDS011;39709;53.334;6.534;2022-12-20T15:55:52;19.35;;;9.55;;
53801;SDS011;39709;53.334;6.534;2022-12-20T15:58:19;21.45;;;12.13;;
53801;SDS011;39709;53.334;6.534;2022-12-20T16:00:45;25.02;;;12.52;;
53801;SDS011;39709;53.334;6.534;2022-12-20T16:03:16;21.53;;;12.50;;
53801;SDS011;39709;53.334;6.534;2022-12-20T16:05:49;24.48;;;12.00;;
53801;SDS011;39709;53.334;6.534;2022-12-20T16:08:18;21.73;;;12.10;;
53801;SDS011;39709;53.334;6.534;2022-12-20T16:10:44;24.10;;;13.02;;
53801;SDS011;39709;53.334;6.534;2022-12-20T16:13:14;19.55;;;10.60;;
53801;SDS011;39709;53.334;6.534;2022-12-20T16:15:42;23.10;;;12.13;;
53801;SDS011;39709;53.334;6.534;2022-12-20T16:18:08;23.80;;;12.82;;
53801;SDS011;39709;53.334;6.534;2022-12-20T16:20:33;20.80;;;11.40;;
53801;SDS011;39709;53.334;6.534;2022-12-20T16:22:59;24.30;;;13.57;;
53801;SDS011;39709;53.334;6.534;2022-12-20T16:25:29;24.67;;;13.65;;
53801;SDS011;39709;53.334;6.534;2022-12-20T16:27:56;24.65;;;12.93;;
53801;SDS011;39709;53.334;6.534;2022-12-20T16:30:23;21.90;;;10.48;;
53801;SDS011;39709;53.334;6.534;2022-12-20T16:32:49;21.17;;;13.27;;
53801;SDS011;39709;53.334;6.534;2022-12-20T16:35:21;23.48;;;13.18;;
53801;SDS011;39709;53.334;6.534;2022-12-20T16:37:53;21.60;;;12.80;;
53801;SDS011;39709;53.334;6.534;2022-12-20T16:40:20;21.65;;;13.50;;
53801;SDS011;39709;53.334;6.534;2022-12-20T16:42:47;22.08;;;12.40;;
53801;SDS011;39709;53.334;6.534;2022-12-20T16:45:17;19.53;;;11.73;;
53801;SDS011;39709;53.334;6.534;2022-12-20T16:47:53;20.75;;;11.88;;
53801;SDS011;39709;53.334;6.534;2022-12-20T16:50:19;18.30;;;10.77;;
53801;SDS011;39709;53.334;6.534;2022-12-20T16:52:46;18.45;;;10.65;;
53801;SDS011;39709;53.334;6.534;2022-12-20T16:55:17;20.03;;;10.90;;
53801;SDS011;39709;53.334;6.534;2022-12-20T16:57:50;20.20;;;10.10;;
53801;SDS011;39709;53.334;6.534;2022-12-20T17:00:20;16.83;;;9.90;;
53801;SDS011;39709;53.334;6.534;2022-12-20T17:02:48;18.00;;;9.63;;
53801;SDS011;39709;53.334;6.534;2022-12-20T17:07:55;16.70;;;9.60;;
53801;SDS011;39709;53.334;6.534;2022-12-20T17:10:21;16.30;;;9.57;;
53801;SDS011;39709;53.334;6.534;2022-12-20T17:12:48;18.73;;;9.20;;
53801;SDS011;39709;53.334;6.534;2022-12-20T17:15:18;15.10;;;8.15;;
53801;SDS011;39709;53.334;6.534;2022-12-20T17:17:47;15.13;;;8.50;;
53801;SDS011;39709;53.334;6.534;2022-12-20T17:20:13;15.57;;;8.43;;